Time;durP1;ratioP1;P1;durP2;ratioP2;P2;SDS_P1;SDS_P2;PMS_P1;PMS_P2;Temp;Humidity;BMP_temperature;BMP_pressure;BME280_temperature;BME280_humidity;BME280_pressure;Samples;Min_cycle;Max_cycle;Signal;HPM_P1;HPM_P2
2022/01/13 00:01:54;;;;;;;;;100.00;77.50;;;;;-2.62;69.37;101436.03;5017499;28;15374;-81
2022/01/13 00:04:25;;;;;;;;;87.75;69.25;;;;;-2.46;68.71;101435.59;5071210;28;10815;-80
2022/01/13 00:06:54;;;;;;;;;92.00;72.25;;;;;-2.49;67.89;101442.16;5070230;28;9598;-81
2022/01/13 00:09:23;;;;;;;;;92.50;72.00;;;;;-2.87;69.17;101452.59;5036869;28;10220;-78
2022/01/13 00:11:52;;;;;;;;;90.00;69.50;;;;;-2.59;69.08;101450.69;5084317;28;9981;-80
2022/01/13 00:14:38;;;;;;;;;86.75;70.50;;;;;-2.95;69.23;101454.50;5087718;28;9673;-78
2022/01/13 00:17:24;;;;;;;;;109.50;85.50;;;;;-2.53;69.22;101451.22;5015327;28;9614;-78
2022/01/13 00:20:28;;;;;;;;;113.25;94.75;;;;;-2.24;67.62;101453.59;5029118;28;10545;-78
2022/01/13 00:25:56;;;;;;;;;107.00;81.00;;;;;-1.78;66.25;101452.22;4947683;28;11579;-78
2022/01/13 00:28:25;;;;;;;;;117.75;105.50;;;;;-1.66;65.67;101454.84;4916106;28;10769;-80
2022/01/13 00:30:56;;;;;;;;;102.00;79.25;;;;;-1.95;64.72;101457.59;4928845;28;12751;-80
2022/01/13 00:33:27;;;;;;;;;100.00;76.00;;;;;-1.73;64.88;101456.78;4931711;28;10903;-80
2022/01/13 00:36:00;;;;;;;;;106.50;80.75;;;;;-1.91;64.07;101462.22;4900046;28;10403;-80
2022/01/13 00:38:30;;;;;;;;;136.00;116.50;;;;;-1.67;65.02;101462.38;4931959;28;10399;-81
2022/01/13 00:41:00;;;;;;;;;116.25;98.25;;;;;-1.57;64.61;101470.91;4916191;28;11684;-79
2022/01/13 00:43:29;;;;;;;;;104.25;84.00;;;;;-1.46;64.76;101464.06;4916218;28;12457;-79
2022/01/13 00:45:58;;;;;;;;;93.75;75.00;;;;;-1.81;64.08;101474.97;4948632;28;10903;-78
2022/01/13 00:48:26;;;;;;;;;95.50;71.50;;;;;-1.72;64.68;101479.94;4973498;28;9984;-77
2022/01/13 00:50:57;;;;;;;;;107.00;86.25;;;;;-1.48;64.89;101482.63;4973495;28;9817;-81
2022/01/13 00:53:26;;;;;;;;;109.00;88.75;;;;;-1.33;64.35;101493.19;5005735;28;11985;-78
2022/01/13 00:56:00;;;;;;;;;99.25;75.50;;;;;-1.33;63.57;101488.97;4973301;28;11041;-79
2022/01/13 00:58:31;;;;;;;;;88.50;67.75;;;;;-1.35;63.96;101479.38;4973520;28;9906;-80
2022/01/13 01:01:02;;;;;;;;;96.75;72.50;;;;;-1.74;64.50;101483.13;5005782;28;10228;-78
2022/01/13 01:03:32;;;;;;;;;89.75;68.25;;;;;-2.27;66.37;101490.78;5049369;28;9943;-78
2022/01/13 01:06:04;;;;;;;;;94.25;72.25;;;;;-2.07;66.79;101480.53;5087178;28;9561;-78
2022/01/13 01:08:34;;;;;;;;;96.25;73.75;;;;;-1.80;66.43;101471.63;5070314;28;10263;-78
2022/01/13 01:11:04;;;;;;;;;81.25;62.75;;;;;-1.51;65.67;101473.06;5069854;28;10415;-79
2022/01/13 01:13:35;;;;;;;;;101.75;80.00;;;;;-1.32;65.52;101467.72;5070230;28;10750;-78
2022/01/13 01:16:09;;;;;;;;;107.25;86.75;;;;;-1.16;65.13;101467.25;5086784;28;10352;-78
2022/01/13 01:18:49;;;;;;;;;90.25;72.25;;;;;-1.21;63.71;101477.13;5086752;28;10690;-79
2022/01/13 01:24:27;;;;;;;;;90.25;65.00;;;;;-1.21;64.24;101482.25;5045219;28;9616;-77
2022/01/13 01:27:02;;;;;;;;;88.75;66.50;;;;;-1.05;64.85;101475.75;5041629;28;10708;-78
2022/01/13 01:29:36;;;;;;;;;106.50;86.25;;;;;-0.92;64.36;101472.47;5042787;28;10519;-77
2022/01/13 01:32:10;;;;;;;;;101.75;79.75;;;;;-0.84;63.08;101473.94;5028195;28;10674;-78
2022/01/13 01:37:24;;;;;;;;;117.25;95.00;;;;;-0.70;63.05;101477.53;5026445;28;11188;-77
2022/01/13 01:39:53;;;;;;;;;118.75;104.50;;;;;-0.71;62.93;101474.09;5028500;28;11309;-78
2022/01/13 01:42:23;;;;;;;;;115.75;100.50;;;;;-0.68;63.16;101468.31;5042253;28;11317;-79
2022/01/13 01:44:56;;;;;;;;;95.75;72.00;;;;;-0.63;62.81;101479.81;5024862;28;11501;-80
2022/01/13 01:47:28;;;;;;;;;115.50;101.25;;;;;-0.58;62.43;101481.06;4976994;28;11277;-78
2022/01/13 01:49:59;;;;;;;;;115.00;96.25;;;;;-0.54;62.76;101471.94;5018467;28;11147;-80
2022/01/13 01:52:29;;;;;;;;;96.25;76.00;;;;;-0.57;62.84;101469.13;5005957;28;12332;-79
2022/01/13 01:54:58;;;;;;;;;108.00;85.25;;;;;-0.55;62.10;101472.69;4988798;28;11173;-77
2022/01/13 01:57:27;;;;;;;;;103.75;81.75;;;;;-0.53;61.57;101478.81;5004969;28;10640;-77
2022/01/13 01:59:56;;;;;;;;;96.50;77.00;;;;;-0.55;62.41;101476.13;5008769;28;10947;-78
2022/01/13 02:02:28;;;;;;;;;106.50;87.75;;;;;-0.56;61.21;101476.94;5010338;28;10115;-80
2022/01/13 02:04:58;;;;;;;;;111.50;89.25;;;;;-0.50;62.24;101473.94;5012164;28;10529;-80
2022/01/13 02:07:29;;;;;;;;;112.50;93.50;;;;;-0.44;62.00;101472.72;4995498;28;11001;-79
2022/01/13 02:09:58;;;;;;;;;114.00;92.00;;;;;-0.36;62.16;101475.84;4979175;28;11113;-80
2022/01/13 02:12:36;;;;;;;;;112.50;98.25;;;;;-0.33;61.33;101470.06;5030583;28;10807;-79
2022/01/13 02:18:01;;;;;;;;;115.00;89.50;;;;;-0.27;61.62;101473.06;5011893;28;11360;-78
2022/01/13 02:20:46;;;;;;;;;113.75;97.50;;;;;-0.17;61.87;101470.44;4969174;28;11784;-79
2022/01/13 02:23:28;;;;;;;;;95.50;71.75;;;;;-0.18;59.84;101468.63;5031511;28;11604;-78
2022/01/13 02:25:57;;;;;;;;;114.50;90.75;;;;;-0.21;61.15;101464.19;5015385;28;9794;-79
2022/01/13 02:28:27;;;;;;;;;112.75;94.25;;;;;-0.17;61.57;101469.53;5017585;28;10914;-78
2022/01/13 02:30:56;;;;;;;;;112.75;86.00;;;;;-0.11;60.98;101470.88;5031146;28;11069;-78
2022/01/13 02:33:25;;;;;;;;;110.50;92.00;;;;;-0.11;60.83;101467.44;5015134;28;11171;-79
2022/01/13 02:35:56;;;;;;;;;108.25;83.50;;;;;-0.05;61.25;101466.19;4982229;28;10903;-79
2022/01/13 02:38:25;;;;;;;;;118.00;104.25;;;;;-0.04;60.49;101462.84;5031327;28;11185;-79
2022/01/13 02:40:56;;;;;;;;;118.00;103.75;;;;;-0.02;60.85;101465.50;5047801;28;11508;-78
2022/01/13 02:43:29;;;;;;;;;117.50;101.75;;;;;-0.04;60.69;101459.38;5031563;28;11549;-79
2022/01/13 02:46:07;;;;;;;;;115.00;96.75;;;;;-0.07;60.75;101460.06;5030652;28;11538;-80
2022/01/13 02:48:36;;;;;;;;;106.50;86.00;;;;;-0.05;60.74;101460.19;5029798;28;11562;-79
2022/01/13 02:51:06;;;;;;;;;103.50;79.50;;;;;-0.12;60.64;101451.13;5047752;28;11753;-79
2022/01/13 02:53:35;;;;;;;;;98.25;75.50;;;;;-0.23;60.87;101452.94;5032375;28;10397;-78
2022/01/13 02:56:05;;;;;;;;;100.50;77.00;;;;;-0.18;60.61;101467.75;5088257;28;9659;-79
2022/01/13 02:58:35;;;;;;;;;52.25;33.00;;;;;-0.15;61.20;101456.06;5038555;28;10458;-79
2022/01/13 03:01:06;;;;;;;;;118.25;100.50;;;;;-0.13;60.52;101463.84;5030698;28;10865;-80
2022/01/13 03:03:36;;;;;;;;;112.00;89.25;;;;;-0.22;59.51;101462.38;5030498;28;11344;-79
2022/01/13 03:06:11;;;;;;;;;116.50;92.50;;;;;-0.20;60.65;101459.94;5030195;28;11200;-78
2022/01/13 03:08:44;;;;;;;;;111.75;94.00;;;;;-0.16;61.00;101456.81;5030075;28;10883;-79
2022/01/13 03:11:13;;;;;;;;;117.75;99.50;;;;;-0.15;61.00;101462.81;5014208;28;11211;-79
2022/01/13 03:13:42;;;;;;;;;111.50;83.75;;;;;-0.12;61.14;101463.06;5030308;28;11617;-77
2022/01/13 03:16:15;;;;;;;;;96.25;76.00;;;;;-0.16;59.38;101463.63;4998424;28;10795;-78
2022/01/13 03:18:45;;;;;;;;;117.00;97.50;;;;;-0.09;60.47;101468.44;5000570;28;9977;-78
2022/01/13 03:21:15;;;;;;;;;114.00;91.25;;;;;-0.05;61.19;101473.88;4965936;28;11233;-79
2022/01/13 03:23:44;;;;;;;;;113.00;96.75;;;;;-0.01;60.93;101452.81;5030189;28;11661;-79
2022/01/13 03:26:13;;;;;;;;;111.25;89.25;;;;;-0.01;60.68;101457.06;5013587;28;11962;-78
2022/01/13 03:28:51;;;;;;;;;104.25;87.00;;;;;0.02;60.91;101461.50;5026584;28;11086;-78
2022/01/13 03:31:21;;;;;;;;;106.25;85.00;;;;;-0.02;60.75;101456.16;5026820;28;10697;-78
2022/01/13 03:33:53;;;;;;;;;108.25;87.00;;;;;0.04;60.30;101452.25;4993426;28;10858;-78
2022/01/13 03:36:23;;;;;;;;;107.00;85.50;;;;;0.08;60.78;101450.03;5009882;28;10961;-78
2022/01/13 03:38:53;;;;;;;;;109.75;92.50;;;;;0.06;60.52;101451.59;5031535;28;10632;-79
2022/01/13 03:41:23;;;;;;;;;112.00;100.00;;;;;0.04;60.53;101454.81;5033427;28;10700;-78
2022/01/13 03:43:54;;;;;;;;;115.50;97.25;;;;;0.01;60.47;101450.34;5050416;28;11776;-77
2022/01/13 03:46:24;;;;;;;;;116.50;93.75;;;;;0.01;60.59;101459.72;5065969;28;10834;-80
2022/01/13 03:48:53;;;;;;;;;100.00;74.25;;;;;-0.15;58.39;101456.06;5050220;28;10937;-80
2022/01/13 03:51:24;;;;;;;;;103.25;78.25;;;;;-0.08;60.29;101452.25;5034114;28;9666;-78
2022/01/13 03:54:53;;;;;;;;;86.33;66.00;;;;;0.05;60.26;101456.59;5049709;28;10455;-79
2022/01/13 03:57:58;;;;;;;;;104.75;81.00;;;;;0.09;60.32;101464.63;4987223;28;9472;-78
2022/01/13 04:01:15;;;;;;;;;99.75;78.75;;;;;0.14;60.04;101449.56;4929124;29;10097;-78
2022/01/13 04:03:44;;;;;;;;;110.00;88.25;;;;;0.03;60.05;101458.16;4867424;29;10566;-78
2022/01/13 04:06:40;;;;;;;;;67.75;53.50;;;;;-0.08;57.72;101465.94;4927657;28;11286;-79
2022/01/13 04:09:21;;;;;;;;;93.00;72.25;;;;;-0.16;58.87;101466.19;4932267;28;8889;-78
2022/01/13 04:11:52;;;;;;;;;104.75;84.25;;;;;-0.15;58.58;101462.81;4923575;29;9593;-77
2022/01/13 04:14:29;;;;;;;;;67.75;55.75;;;;;-0.72;57.83;101462.06;4910368;28;10076;-80
2022/01/13 04:16:58;;;;;;;;;70.00;58.00;;;;;-0.62;58.03;101471.34;4889435;28;13047;-78
2022/01/13 04:19:27;;;;;;;;;100.00;75.75;;;;;-0.56;58.63;101473.50;4934747;28;9146;-79
2022/01/13 04:21:57;;;;;;;;;116.25;94.25;;;;;-0.45;60.16;101470.94;4945114;28;9919;-79
2022/01/13 04:24:26;;;;;;;;;115.00;98.00;;;;;-0.32;60.18;101474.41;4940437;28;12029;-79
2022/01/13 04:26:56;;;;;;;;;135.00;119.75;;;;;-0.33;60.33;101476.06;4887578;28;11649;-78
2022/01/13 04:29:33;;;;;;;;;106.75;83.50;;;;;-0.24;60.67;101483.56;4929406;28;11668;-77
2022/01/13 04:32:03;;;;;;;;;81.67;65.67;;;;;-0.23;59.73;101483.69;4944450;28;11171;-79
2022/01/13 04:34:32;;;;;;;;;101.00;78.00;;;;;-0.20;59.34;101488.13;4988011;28;9282;-78
2022/01/13 04:37:03;;;;;;;;;74.00;50.75;;;;;-0.23;59.15;101498.16;5002585;28;10406;-79
2022/01/13 04:39:32;;;;;;;;;111.75;90.25;;;;;-0.28;59.42;101496.94;5087069;28;10835;-78
2022/01/13 04:42:02;;;;;;;;;88.00;69.33;;;;;-0.29;59.15;101488.34;5059570;28;10785;-77
2022/01/13 04:44:31;;;;;;;;;105.00;81.00;;;;;-0.17;59.70;101490.03;5067706;28;10059;-77
2022/01/13 04:47:00;;;;;;;;;66.00;52.50;;;;;-0.54;57.82;101497.56;5025293;28;10192;-77
2022/01/13 04:49:29;;;;;;;;;72.75;59.50;;;;;-0.94;60.47;101490.28;5006531;28;9097;-78
2022/01/13 04:51:58;;;;;;;;;100.00;76.75;;;;;-0.67;60.62;101498.28;5028952;28;9655;-77
2022/01/13 04:54:28;;;;;;;;;112.50;86.00;;;;;-0.51;60.82;101497.75;5029004;28;10489;-77
2022/01/13 04:57:14;;;;;;;;;106.00;85.25;;;;;-0.39;61.09;101496.13;5044795;28;10555;-79
2022/01/13 04:59:43;;;;;;;;;104.50;78.50;;;;;-0.26;61.08;101497.94;5005262;28;10707;-78
2022/01/13 05:02:14;;;;;;;;;109.00;93.25;;;;;-0.15;60.87;101497.06;5005494;28;11278;-77
2022/01/13 05:04:43;;;;;;;;;109.75;92.00;;;;;-0.08;60.76;101500.97;5004949;28;11047;-78
2022/01/13 05:07:12;;;;;;;;;111.25;92.25;;;;;0.00;60.62;101505.00;4946825;28;10978;-79
2022/01/13 05:09:42;;;;;;;;;113.50;95.50;;;;;0.06;60.14;101507.09;4946982;28;10837;-78
2022/01/13 05:12:11;;;;;;;;;114.00;86.00;;;;;0.10;60.02;101507.47;4930062;28;10972;-77
2022/01/13 05:14:40;;;;;;;;;100.75;77.50;;;;;0.14;59.67;101518.84;4946116;28;11192;-79
2022/01/13 05:17:12;;;;;;;;;106.25;88.00;;;;;0.13;60.10;101520.53;4946310;28;10288;-78
2022/01/13 05:19:57;;;;;;;;;98.50;77.50;;;;;0.16;59.82;101523.28;4946793;28;10503;-78
2022/01/13 05:22:26;;;;;;;;;91.75;71.50;;;;;0.17;59.50;101519.03;4938574;28;10592;-78
2022/01/13 05:24:57;;;;;;;;;99.50;79.00;;;;;0.14;59.68;101518.84;4953414;28;10249;-78
2022/01/13 05:27:27;;;;;;;;;98.50;78.50;;;;;0.08;59.15;101518.41;4952882;28;10480;-78
2022/01/13 05:29:55;;;;;;;;;109.50;85.50;;;;;-0.04;59.33;101526.97;4968981;28;10585;-79
2022/01/13 05:32:24;;;;;;;;;99.00;75.75;;;;;-0.07;58.93;101529.28;4954321;28;11221;-77
2022/01/13 05:34:53;;;;;;;;;102.75;79.00;;;;;-0.08;59.26;101542.00;4972513;28;10300;-79
2022/01/13 05:37:22;;;;;;;;;69.75;52.00;;;;;-0.07;59.36;101544.69;5004331;28;11010;-79
2022/01/13 05:39:51;;;;;;;;;115.00;88.50;;;;;-0.03;59.38;101545.81;5039590;28;10192;-79
2022/01/13 05:42:21;;;;;;;;;93.75;75.25;;;;;0.04;59.33;101555.75;5072877;28;10671;-78
2022/01/13 05:44:50;;;;;;;;;104.50;78.75;;;;;0.02;59.17;101548.69;5067722;28;10370;-79
2022/01/13 05:47:21;;;;;;;;;92.00;72.25;;;;;0.06;59.73;101566.09;5003134;28;10119;-78
2022/01/13 05:49:50;;;;;;;;;95.75;74.00;;;;;0.11;59.44;101564.78;5052299;28;9917;-79
2022/01/13 05:52:19;;;;;;;;;93.50;72.50;;;;;0.07;58.94;101570.47;5051348;28;9899;-79
2022/01/13 05:54:48;;;;;;;;;102.75;81.00;;;;;0.07;59.92;101567.91;5034654;28;9620;-78
2022/01/13 05:57:16;;;;;;;;;108.50;82.00;;;;;0.03;59.58;101569.34;5051058;28;10293;-78
2022/01/13 05:59:46;;;;;;;;;101.75;80.25;;;;;0.02;59.64;101577.81;5034183;28;10484;-77
2022/01/13 06:02:16;;;;;;;;;99.00;78.00;;;;;-0.02;59.77;101574.13;5050980;28;10063;-78
2022/01/13 06:04:45;;;;;;;;;92.75;73.25;;;;;-0.03;59.56;101574.00;5050928;28;10009;-80
2022/01/13 06:07:13;;;;;;;;;93.00;73.25;;;;;-0.08;59.24;101558.25;5050226;28;9984;-79
2022/01/13 06:09:47;;;;;;;;;93.50;73.50;;;;;-0.11;60.39;101562.31;5030354;28;9723;-78
2022/01/13 06:12:19;;;;;;;;;91.50;72.25;;;;;-0.13;59.13;101572.44;5014854;28;9717;-77
2022/01/13 06:14:49;;;;;;;;;98.75;72.75;;;;;-0.15;59.70;101562.81;5030235;28;9734;-79
2022/01/13 06:17:18;;;;;;;;;97.00;73.50;;;;;-0.19;59.50;101569.38;5014096;28;9902;-80
2022/01/13 06:19:47;;;;;;;;;95.50;74.75;;;;;-0.20;59.44;101575.31;5030763;28;9734;-78
2022/01/13 06:22:16;;;;;;;;;96.50;76.50;;;;;-0.20;59.82;101573.63;5046906;28;10188;-78
2022/01/13 06:24:45;;;;;;;;;96.75;74.00;;;;;-0.16;59.95;101590.16;5054144;28;9837;-78
2022/01/13 06:27:14;;;;;;;;;93.75;75.25;;;;;-0.14;60.35;101603.97;5067035;28;9897;-79
2022/01/13 06:29:42;;;;;;;;;92.50;73.50;;;;;-0.08;60.56;101617.25;5086385;28;9545;-79
2022/01/13 06:32:13;;;;;;;;;91.00;72.50;;;;;-0.02;60.35;101621.94;5054374;28;9774;-79
2022/01/13 06:34:42;;;;;;;;;6.00;0.00;;;;;-0.29;59.19;101624.19;5085935;28;10439;-78
2022/01/13 06:37:10;;;;;;;;;91.33;67.67;;;;;-0.31;59.81;101615.50;5071037;28;9839;-80
2022/01/13 06:39:39;;;;;;;;;99.50;76.00;;;;;-0.23;61.02;101608.41;5070858;28;10285;-80
2022/01/13 06:42:09;;;;;;;;;91.00;70.75;;;;;-0.22;60.94;101597.38;5085644;28;9929;-80
2022/01/13 06:44:39;;;;;;;;;94.75;75.00;;;;;-0.15;60.47;101589.38;5070774;28;9855;-79
2022/01/13 06:47:08;;;;;;;;;96.50;69.75;;;;;-0.09;61.00;101601.78;5070646;28;10036;-80
2022/01/13 06:49:39;;;;;;;;;94.00;72.75;;;;;-0.03;61.35;101595.41;5064909;28;9913;-80
2022/01/13 06:52:08;;;;;;;;;99.50;75.50;;;;;0.01;60.94;101591.41;5071541;28;9709;-79
2022/01/13 06:54:38;;;;;;;;;97.00;77.50;;;;;0.04;60.71;101568.56;5080416;28;9933;-79
2022/01/13 06:57:07;;;;;;;;;99.00;77.50;;;;;0.06;60.06;101559.31;5097135;28;10179;-79
2022/01/13 06:59:35;;;;;;;;;83.00;66.50;;;;;0.13;60.10;101566.69;5081227;28;10177;-77
2022/01/13 07:02:05;;;;;;;;;102.50;79.00;;;;;0.17;61.07;101567.78;5078305;28;10205;-78
2022/01/13 07:04:34;;;;;;;;;104.50;78.00;;;;;0.21;60.48;101580.09;5044097;28;10337;-76
2022/01/13 07:07:04;;;;;;;;;75.25;59.75;;;;;0.25;60.77;101587.22;5081219;28;10307;-76
2022/01/13 07:09:33;;;;;;;;;102.25;79.50;;;;;0.31;60.49;101592.78;5089014;28;10641;-80
2022/01/13 07:12:02;;;;;;;;;101.50;79.50;;;;;0.16;60.00;101605.38;5085794;28;10613;-77
2022/01/13 07:14:31;;;;;;;;;102.25;78.50;;;;;0.03;61.66;101601.78;5073607;28;10309;-76
2022/01/13 07:17:00;;;;;;;;;98.50;76.25;;;;;0.10;61.59;101593.78;5086586;28;10319;-77
2022/01/13 07:19:29;;;;;;;;;101.00;76.25;;;;;0.19;61.16;101605.63;5088848;28;10333;-77
2022/01/13 07:21:58;;;;;;;;;93.00;73.00;;;;;0.24;61.18;101613.63;5072240;28;10049;-79
2022/01/13 07:24:29;;;;;;;;;100.25;77.00;;;;;0.27;61.04;101623.25;5071312;28;9938;-80
2022/01/13 07:26:57;;;;;;;;;88.00;69.00;;;;;0.25;61.18;101622.25;5089057;28;9915;-79
2022/01/13 07:29:26;;;;;;;;;95.00;75.75;;;;;0.23;61.41;101617.00;5089954;28;9951;-81
2022/01/13 07:31:56;;;;;;;;;100.00;75.25;;;;;0.23;61.12;101606.75;5072861;28;10059;-79
2022/01/13 07:34:24;;;;;;;;;97.75;74.50;;;;;0.25;60.94;101591.47;5071902;28;10251;-79
2022/01/13 07:36:53;;;;;;;;;93.75;76.25;;;;;0.27;61.13;101589.91;5021396;28;9957;-77
2022/01/13 07:39:22;;;;;;;;;95.75;74.00;;;;;0.29;61.62;101589.22;5050886;28;9945;-78
2022/01/13 07:41:52;;;;;;;;;99.25;75.75;;;;;0.33;61.03;101598.03;5050424;28;10172;-78
2022/01/13 07:44:21;;;;;;;;;97.25;75.25;;;;;0.36;61.35;101591.47;5034477;28;10043;-78
2022/01/13 07:46:50;;;;;;;;;100.25;77.75;;;;;0.39;61.58;101593.34;5051194;28;10039;-78
2022/01/13 07:49:19;;;;;;;;;93.50;71.00;;;;;0.43;60.95;101602.19;5051094;28;10222;-80
2022/01/13 07:51:48;;;;;;;;;88.50;69.50;;;;;0.44;61.03;101601.41;5066710;28;10217;-78
2022/01/13 07:54:17;;;;;;;;;94.25;75.00;;;;;0.48;61.12;101596.59;5034967;28;10036;-78
2022/01/13 07:56:46;;;;;;;;;94.50;73.00;;;;;0.54;61.22;101598.72;5033497;28;9995;-79
2022/01/13 07:59:16;;;;;;;;;99.00;78.75;;;;;0.57;61.20;101583.56;5034292;28;10259;-78
2022/01/13 08:01:45;;;;;;;;;105.50;85.50;;;;;0.36;60.33;101591.47;5050648;28;10344;-79
2022/01/13 08:04:17;;;;;;;;;94.50;75.00;;;;;0.38;60.86;101587.34;5048949;28;10371;-78
2022/01/13 08:06:45;;;;;;;;;111.25;93.75;;;;;0.47;61.13;101583.66;5065545;28;10547;-79
2022/01/13 08:09:14;;;;;;;;;115.25;93.25;;;;;0.49;61.28;101572.72;4993148;28;10628;-79
2022/01/13 08:11:44;;;;;;;;;107.00;85.75;;;;;0.53;60.92;101573.81;5048442;28;11770;-78
2022/01/13 08:14:13;;;;;;;;;110.00;84.25;;;;;0.25;61.66;101576.06;5048798;28;11262;-79
2022/01/13 08:16:45;;;;;;;;;112.50;87.75;;;;;0.43;61.58;101573.94;5048973;28;10744;-78
2022/01/13 08:22:00;;;;;;;;;40.50;28.00;;;;;0.65;61.84;101568.69;5064900;28;10566;-79
2022/01/13 08:24:29;;;;;;;;;106.25;84.00;;;;;0.77;61.96;101570.44;5046365;28;10263;-79
2022/01/13 08:26:58;;;;;;;;;108.00;83.25;;;;;0.45;61.25;101573.25;5045758;28;10400;-79
2022/01/13 08:29:28;;;;;;;;;108.00;88.50;;;;;0.69;61.90;101568.13;5032446;28;10462;-80
2022/01/13 08:31:58;;;;;;;;;95.75;77.50;;;;;-0.08;63.35;101590.72;5048287;28;10570;-79
2022/01/13 08:34:27;;;;;;;;;101.00;77.75;;;;;0.03;63.38;101594.09;5024405;28;9868;-77
2022/01/13 08:36:56;;;;;;;;;103.75;78.50;;;;;0.18;63.87;101598.69;5009197;28;10255;-78
2022/01/13 08:39:25;;;;;;;;;98.50;78.25;;;;;0.10;64.15;101579.28;5028546;28;10186;-78
2022/01/13 08:41:53;;;;;;;;;101.75;78.50;;;;;-0.14;63.17;101592.81;5048139;28;9707;-78
2022/01/13 08:44:22;;;;;;;;;99.75;76.50;;;;;-0.33;64.55;101594.00;5028506;28;10303;-77
2022/01/13 08:46:51;;;;;;;;;97.25;75.50;;;;;-0.65;65.94;101622.25;5036203;28;10219;-78
2022/01/13 08:49:22;;;;;;;;;104.00;81.50;;;;;-1.44;68.47;101625.38;5047005;28;9941;-78
2022/01/13 08:51:51;;;;;;;;;90.75;69.25;;;;;-1.13;68.39;101633.88;5044464;28;10132;-78
2022/01/13 08:54:21;;;;;;;;;84.50;67.75;;;;;-0.91;67.27;101628.78;5022555;28;9840;-77
2022/01/13 08:56:54;;;;;;;;;93.25;71.25;;;;;-0.66;67.42;101612.78;5011589;28;9507;-73
2022/01/13 08:59:22;;;;;;;;;93.00;75.00;;;;;-0.43;66.41;101610.34;4975818;28;9660;-72
2022/01/13 09:01:51;;;;;;;;;92.00;69.00;;;;;-0.35;65.42;101604.91;4991868;28;9724;-72
2022/01/13 09:04:22;;;;;;;;;91.00;69.33;;;;;-0.44;65.89;101615.34;5007739;28;9708;-72
2022/01/13 09:06:51;;;;;;;;;88.33;69.00;;;;;-1.28;67.84;101623.31;4975576;28;10153;-74
2022/01/13 09:09:19;;;;;;;;;85.67;68.33;;;;;-1.18;67.29;101630.03;4975707;28;9445;-75
2022/01/13 09:11:48;;;;;;;;;84.00;63.67;;;;;-1.48;68.85;101631.91;5003089;28;9460;-72
2022/01/13 09:14:22;;;;;;;;;87.00;67.67;;;;;-1.01;67.94;101628.84;5048107;28;9255;-74
2022/01/13 09:16:51;;;;;;;;;28.33;10.00;;;;;-1.10;66.81;101638.34;5048193;28;9165;-76
2022/01/13 09:19:19;;;;;;;;;80.67;62.67;;;;;-1.01;67.05;101632.28;5020998;28;9181;-72
2022/01/13 09:21:50;;;;;;;;;90.67;66.67;;;;;-1.06;67.02;101625.94;5030291;28;10072;-73
2022/01/13 09:24:21;;;;;;;;;88.67;70.33;;;;;-1.68;69.44;101639.63;5037482;28;9442;-72
2022/01/13 09:26:50;;;;;;;;;82.00;66.00;;;;;-1.37;68.45;101630.22;5046525;28;9172;-76
2022/01/13 09:29:19;;;;;;;;;78.33;63.00;;;;;-1.08;67.34;101630.00;5027818;28;9091;-72
2022/01/13 09:31:47;;;;;;;;;82.00;61.67;;;;;-1.49;69.19;101639.47;5043966;28;9576;-72
2022/01/13 09:34:16;;;;;;;;;80.67;61.67;;;;;-1.39;69.90;101632.66;5047101;28;9192;-72
2022/01/13 09:36:45;;;;;;;;;85.67;67.33;;;;;-0.86;68.85;101626.59;5046849;28;9340;-73
2022/01/13 09:39:15;;;;;;;;;73.67;58.67;;;;;-0.46;67.71;101630.59;5027947;28;9041;-74
2022/01/13 09:41:46;;;;;;;;;84.67;65.33;;;;;-0.10;66.77;101641.00;5047886;28;9081;-73
2022/01/13 09:44:14;;;;;;;;;80.00;63.25;;;;;0.22;64.93;101629.72;5033420;28;9171;-73
2022/01/13 09:46:44;;;;;;;;;79.00;63.50;;;;;0.47;64.02;101619.59;5032039;28;9072;-72
2022/01/13 09:49:13;;;;;;;;;90.33;69.33;;;;;0.29;63.35;101624.25;5042809;28;8889;-75
2022/01/13 09:51:45;;;;;;;;;79.33;64.00;;;;;0.64;63.71;101618.25;5044366;28;9779;-74
2022/01/13 09:54:16;;;;;;;;;73.67;60.00;;;;;0.89;63.21;101608.06;5046288;28;9124;-73
2022/01/13 09:56:45;;;;;;;;;84.33;66.67;;;;;1.10;62.48;101601.03;5048028;28;9033;-75
2022/01/13 09:59:14;;;;;;;;;77.75;58.00;;;;;1.29;61.09;101592.94;5047469;28;9100;-74
2022/01/13 10:01:43;;;;;;;;;72.75;60.00;;;;;1.31;59.65;101597.38;5046936;28;8864;-74
2022/01/13 10:04:13;;;;;;;;;81.75;61.50;;;;;1.25;58.86;101602.09;5003951;28;9609;-72
2022/01/13 10:06:44;;;;;;;;;84.00;65.00;;;;;0.94;58.55;101596.44;5004512;28;8862;-73
2022/01/13 10:09:15;;;;;;;;;77.25;60.25;;;;;0.68;58.77;101592.94;4929616;28;8922;-72
2022/01/13 10:11:48;;;;;;;;;71.25;54.75;;;;;0.17;60.64;101584.09;4945737;28;8865;-72
2022/01/13 10:16:23;;;;;;;;;71.75;59.00;;;;;-0.09;61.89;101594.06;4965539;28;8928;-75
2022/01/13 10:17:09;;;;;;;;;45.75;43.75;;;;;0.12;62.21;101587.09;4973914;28;9619;-71
2022/01/13 10:19:41;;;;;;;;;69.00;54.25;;;;;-0.32;61.39;101582.97;4986515;28;8857;-72
2022/01/13 10:22:12;;;;;;;;;57.25;50.00;;;;;-0.07;63.10;101585.72;4971235;28;8862;-73
2022/01/13 10:24:45;;;;;;;;;66.75;53.50;;;;;-0.06;62.86;101595.19;4987854;28;8888;-71
2022/01/13 10:27:18;;;;;;;;;60.75;50.75;;;;;0.31;61.40;101590.22;4972118;28;8920;-74
2022/01/13 10:29:49;;;;;;;;;69.00;58.00;;;;;-0.48;62.75;101593.69;4971668;28;9588;-73
2022/01/13 10:32:21;;;;;;;;;63.00;48.75;;;;;-0.80;63.69;101597.22;4988046;28;8992;-73
2022/01/13 10:34:56;;;;;;;;;66.50;50.75;;;;;-0.28;63.70;101581.53;5006593;28;8852;-73
2022/01/13 10:37:30;;;;;;;;;52.50;47.50;;;;;-0.08;63.30;101577.91;4971056;28;8863;-74
2022/01/13 10:40:03;;;;;;;;;67.25;52.00;;;;;0.33;62.40;101559.56;4990141;28;8859;-72
2022/01/13 10:45:42;;;;;;;;;61.25;50.50;;;;;-0.66;62.98;101559.88;5030456;28;8998;-74
2022/01/13 10:48:13;;;;;;;;;61.50;51.25;;;;;-0.10;63.93;101554.69;5009669;28;9631;-74
2022/01/13 10:50:46;;;;;;;;;62.00;49.50;;;;;-0.15;61.39;101560.25;5027107;28;9090;-72
2022/01/13 10:53:17;;;;;;;;;69.75;55.75;;;;;-0.14;61.91;101559.50;4994644;28;8901;-74
2022/01/13 10:55:50;;;;;;;;;57.75;50.00;;;;;-0.57;63.28;101571.59;4994441;28;8900;-74
2022/01/13 10:58:24;;;;;;;;;63.00;53.25;;;;;-0.28;64.52;101561.03;4978352;28;8858;-72
2022/01/13 11:00:53;;;;;;;;;68.50;54.00;;;;;0.05;64.04;101566.88;5010896;28;8905;-73
2022/01/13 11:03:24;;;;;;;;;67.50;57.00;;;;;0.29;63.28;101563.56;5010542;28;9561;-71
2022/01/13 11:05:55;;;;;;;;;73.25;58.25;;;;;0.66;61.01;101565.34;5010363;28;8973;-72
2022/01/13 11:08:27;;;;;;;;;56.25;45.50;;;;;0.77;60.46;101557.59;5025627;28;8898;-72
2022/01/13 11:10:59;;;;;;;;;61.50;52.75;;;;;1.00;60.93;101544.63;5049717;28;8869;-74
2022/01/13 11:13:30;;;;;;;;;62.25;49.50;;;;;1.29;59.79;101551.81;5048830;28;8918;-73
2022/01/13 11:15:59;;;;;;;;;67.50;54.50;;;;;1.18;58.17;101556.19;5050005;28;8853;-71
2022/01/13 11:18:30;;;;;;;;;58.00;49.25;;;;;-0.24;61.26;101569.06;5069074;28;8849;-73
2022/01/13 11:21:01;;;;;;;;;67.25;54.00;;;;;0.04;62.98;101566.00;5089038;28;8885;-71
2022/01/13 11:23:32;;;;;;;;;65.50;51.25;;;;;0.02;61.42;101559.88;5089294;28;8922;-72
2022/01/13 11:26:02;;;;;;;;;59.75;49.00;;;;;-0.63;63.88;101570.34;5089285;28;8865;-71
2022/01/13 11:28:31;;;;;;;;;34.25;34.00;;;;;-0.47;66.29;101554.50;5087033;28;8874;-71
2022/01/13 11:31:00;;;;;;;;;61.75;45.75;;;;;-1.33;64.33;101569.97;5084945;28;8885;-71
2022/01/13 11:33:29;;;;;;;;;62.25;50.00;;;;;-1.22;64.97;101559.78;5086770;28;8845;-70
2022/01/13 11:35:58;;;;;;;;;58.50;49.50;;;;;-1.23;65.24;101558.03;5086992;28;8850;-73
2022/01/13 11:38:30;;;;;;;;;57.75;48.00;;;;;-0.87;65.32;101566.81;5067007;28;8964;-73
2022/01/13 11:41:03;;;;;;;;;58.00;45.00;;;;;-0.68;63.28;101558.88;5086787;28;8837;-72
2022/01/13 11:43:35;;;;;;;;;65.33;50.33;;;;;-1.06;64.74;101555.88;5088806;28;8891;-72
2022/01/13 11:46:22;;;;;;;;;64.75;48.75;;;;;-1.28;63.41;101559.31;5070871;28;9079;-72
2022/01/13 11:48:58;;;;;;;;;56.75;47.00;;;;;-1.60;66.01;101549.97;5086693;28;8849;-68